LTCI Airport Information

Runway Information
Runway 03 Length 9022 ft width 148 ft
Elevation 5412 ft Threshold 0 ft Heading 38
Runway 21 Length 9022 ft Width 148 ft
Elevation 5474 ft Threshold 0 ft Heading 218
Airport Frequencies
Type APP Name APP Frequency 118.1 MHZ
Type GND Name GND Frequency 121.9 MHZ
Type TWR Name TWR Frequency 118.1 MHZ
Airport Navaids
Type VOR-DME Name Van Frequency 115200 KHZ
Type NDB Name Van Frequency 397 KHZ
Airport Weather Information & NOTAM
ADDS - METARS form results

(1439 UTC 19 January 2019)
Data provider http://aviationweather.gov/metar/data/
 
METAR text: LTCI 191350Z 35003KT 310V030 9999 SCT035 M02/M07 Q1020 NOSIG
Conditions at: LTCI (VAN , TR) observed 1350 UTC 19 January 2019
Temperature: -2.0°C (28°F)
Dewpoint: -7.0°C (19°F) [RH = 69%]
Pressure (altimeter): 30.12 inches Hg (1020.0 mb)
Winds: from the N (350 degrees) at 3 MPH (3 knots; 1.5 m/s)
Visibility: 6 or more miles (10+ km)
Ceiling: at least 12,000 feet AGL
Clouds: scattered clouds at 3500 feet AGL
Weather: no significant weather observed at this time

Forecast for: LTCI (VAN , TR)
Text: TAF LTCI 191340Z 1915/1924 14008KT 9999 FEW040
Forecast period: 1500 UTC 19 January 2019 to 0000 UTC 20 January 2019
Forecast type: FROM: standard forecast or significant change
Winds: from the SE (140 degrees) at 9 MPH (8 knots; 4.1 m/s)
Visibility: 6 or more miles 10+ km)
Ceiling: at least 12,000 feet AGL
Clouds: few clouds at 4000 feet AGL
Weather: no significant weather forecast for this period